sensor_id;sensor_type;location;lat;lon;timestamp;P1;durP1;ratioP1;P2;durP2;ratioP2
43152;SDS011;28756;49.064;9.290;2022-07-21T00:01:48;7.97;;;7.18;;
43152;SDS011;28756;49.064;9.290;2022-07-21T00:04:16;10.10;;;7.22;;
43152;SDS011;28756;49.064;9.290;2022-07-21T00:06:42;8.60;;;7.45;;
43152;SDS011;28756;49.064;9.290;2022-07-21T00:09:10;10.68;;;8.30;;
43152;SDS011;28756;49.064;9.290;2022-07-21T00:11:37;8.68;;;7.55;;
43152;SDS011;28756;49.064;9.290;2022-07-21T00:14:04;12.70;;;8.00;;
43152;SDS011;28756;49.064;9.290;2022-07-21T00:16:31;7.60;;;6.80;;
43152;SDS011;28756;49.064;9.290;2022-07-21T00:18:57;8.40;;;6.93;;
43152;SDS011;28756;49.064;9.290;2022-07-21T00:21:24;7.80;;;7.05;;
43152;SDS011;28756;49.064;9.290;2022-07-21T00:23:53;6.85;;;6.15;;
43152;SDS011;28756;49.064;9.290;2022-07-21T00:26:19;7.57;;;6.78;;
43152;SDS011;28756;49.064;9.290;2022-07-21T00:28:45;7.60;;;6.65;;
43152;SDS011;28756;49.064;9.290;2022-07-21T00:31:10;7.75;;;6.55;;
43152;SDS011;28756;49.064;9.290;2022-07-21T00:33:36;8.38;;;6.50;;
43152;SDS011;28756;49.064;9.290;2022-07-21T00:36:02;7.20;;;6.50;;
43152;SDS011;28756;49.064;9.290;2022-07-21T00:38:28;7.30;;;6.50;;
43152;SDS011;28756;49.064;9.290;2022-07-21T00:40:54;7.75;;;6.15;;
43152;SDS011;28756;49.064;9.290;2022-07-21T00:43:20;8.43;;;7.00;;
43152;SDS011;28756;49.064;9.290;2022-07-21T00:45:46;8.13;;;7.32;;
43152;SDS011;28756;49.064;9.290;2022-07-21T00:48:11;7.22;;;6.55;;
43152;SDS011;28756;49.064;9.290;2022-07-21T00:50:37;8.27;;;7.47;;
43152;SDS011;28756;49.064;9.290;2022-07-21T00:53:03;7.85;;;7.05;;
43152;SDS011;28756;49.064;9.290;2022-07-21T00:55:29;8.27;;;6.65;;
43152;SDS011;28756;49.064;9.290;2022-07-21T00:57:55;7.90;;;6.88;;
43152;SDS011;28756;49.064;9.290;2022-07-21T01:00:23;9.57;;;8.00;;
43152;SDS011;28756;49.064;9.290;2022-07-21T01:02:51;11.27;;;8.63;;
43152;SDS011;28756;49.064;9.290;2022-07-21T01:05:18;10.15;;;7.75;;
43152;SDS011;28756;49.064;9.290;2022-07-21T01:07:45;12.23;;;8.73;;
43152;SDS011;28756;49.064;9.290;2022-07-21T01:10:20;10.90;;;8.48;;
43152;SDS011;28756;49.064;9.290;2022-07-21T01:12:48;8.75;;;7.85;;
43152;SDS011;28756;49.064;9.290;2022-07-21T01:15:15;8.85;;;8.00;;
43152;SDS011;28756;49.064;9.290;2022-07-21T01:17:44;9.10;;;7.80;;
43152;SDS011;28756;49.064;9.290;2022-07-21T01:20:12;7.75;;;6.63;;
43152;SDS011;28756;49.064;9.290;2022-07-21T01:22:42;7.82;;;7.13;;
43152;SDS011;28756;49.064;9.290;2022-07-21T01:25:10;9.73;;;7.65;;
43152;SDS011;28756;49.064;9.290;2022-07-21T01:27:37;9.45;;;8.45;;
43152;SDS011;28756;49.064;9.290;2022-07-21T01:30:04;8.05;;;7.20;;
43152;SDS011;28756;49.064;9.290;2022-07-21T01:32:33;7.75;;;6.95;;
43152;SDS011;28756;49.064;9.290;2022-07-21T01:35:04;7.38;;;6.53;;
43152;SDS011;28756;49.064;9.290;2022-07-21T01:37:34;7.40;;;6.57;;
43152;SDS011;28756;49.064;9.290;2022-07-21T01:40:06;7.70;;;6.63;;
43152;SDS011;28756;49.064;9.290;2022-07-21T01:42:51;7.57;;;6.88;;
43152;SDS011;28756;49.064;9.290;2022-07-21T01:45:18;8.50;;;6.47;;
43152;SDS011;28756;49.064;9.290;2022-07-21T01:47:44;8.10;;;7.18;;
43152;SDS011;28756;49.064;9.290;2022-07-21T01:50:10;8.65;;;7.63;;
43152;SDS011;28756;49.064;9.290;2022-07-21T01:52:36;7.68;;;6.80;;
43152;SDS011;28756;49.064;9.290;2022-07-21T01:55:02;9.05;;;7.57;;
43152;SDS011;28756;49.064;9.290;2022-07-21T01:57:28;7.60;;;6.85;;
43152;SDS011;28756;49.064;9.290;2022-07-21T01:59:54;7.95;;;7.15;;
43152;SDS011;28756;49.064;9.290;2022-07-21T02:02:19;8.18;;;7.20;;
43152;SDS011;28756;49.064;9.290;2022-07-21T02:04:47;7.82;;;7.03;;
43152;SDS011;28756;49.064;9.290;2022-07-21T02:07:14;9.90;;;7.30;;
43152;SDS011;28756;49.064;9.290;2022-07-21T02:09:40;7.97;;;7.13;;
43152;SDS011;28756;49.064;9.290;2022-07-21T02:12:07;8.82;;;7.97;;
43152;SDS011;28756;49.064;9.290;2022-07-21T02:14:32;9.32;;;7.85;;
43152;SDS011;28756;49.064;9.290;2022-07-21T02:16:58;9.35;;;7.40;;
43152;SDS011;28756;49.064;9.290;2022-07-21T02:19:24;8.63;;;7.25;;
43152;SDS011;28756;49.064;9.290;2022-07-21T02:21:49;10.85;;;9.63;;
43152;SDS011;28756;49.064;9.290;2022-07-21T02:24:15;10.25;;;9.23;;
43152;SDS011;28756;49.064;9.290;2022-07-21T02:26:41;10.35;;;8.50;;
43152;SDS011;28756;49.064;9.290;2022-07-21T02:29:07;12.35;;;8.05;;
43152;SDS011;28756;49.064;9.290;2022-07-21T02:31:32;10.02;;;8.35;;
43152;SDS011;28756;49.064;9.290;2022-07-21T02:33:58;16.05;;;8.35;;
43152;SDS011;28756;49.064;9.290;2022-07-21T02:36:24;9.40;;;7.60;;
43152;SDS011;28756;49.064;9.290;2022-07-21T02:38:50;12.98;;;8.68;;
43152;SDS011;28756;49.064;9.290;2022-07-21T02:41:16;10.75;;;9.00;;
43152;SDS011;28756;49.064;9.290;2022-07-21T02:43:42;8.93;;;6.97;;
43152;SDS011;28756;49.064;9.290;2022-07-21T02:46:08;8.93;;;7.78;;
43152;SDS011;28756;49.064;9.290;2022-07-21T02:48:34;8.82;;;7.68;;
43152;SDS011;28756;49.064;9.290;2022-07-21T02:51:00;8.55;;;6.88;;
43152;SDS011;28756;49.064;9.290;2022-07-21T02:53:26;8.60;;;7.65;;
43152;SDS011;28756;49.064;9.290;2022-07-21T02:55:52;7.70;;;6.90;;
43152;SDS011;28756;49.064;9.290;2022-07-21T03:00:49;7.38;;;6.50;;
43152;SDS011;28756;49.064;9.290;2022-07-21T03:03:22;7.32;;;6.20;;
43152;SDS011;28756;49.064;9.290;2022-07-21T03:05:52;8.18;;;6.53;;
43152;SDS011;28756;49.064;9.290;2022-07-21T03:08:19;7.70;;;6.60;;
43152;SDS011;28756;49.064;9.290;2022-07-21T03:10:45;8.25;;;7.45;;
43152;SDS011;28756;49.064;9.290;2022-07-21T03:13:11;7.97;;;7.18;;
43152;SDS011;28756;49.064;9.290;2022-07-21T03:15:38;9.88;;;7.30;;
43152;SDS011;28756;49.064;9.290;2022-07-21T03:18:04;8.55;;;6.70;;
43152;SDS011;28756;49.064;9.290;2022-07-21T03:20:31;7.80;;;7.07;;
43152;SDS011;28756;49.064;9.290;2022-07-21T03:23:00;7.78;;;6.82;;
43152;SDS011;28756;49.064;9.290;2022-07-21T03:25:26;15.88;;;8.45;;
43152;SDS011;28756;49.064;9.290;2022-07-21T03:27:53;8.10;;;7.30;;
43152;SDS011;28756;49.064;9.290;2022-07-21T03:30:19;10.02;;;7.95;;
43152;SDS011;28756;49.064;9.290;2022-07-21T03:32:46;9.35;;;7.72;;
43152;SDS011;28756;49.064;9.290;2022-07-21T03:35:13;10.15;;;7.43;;
43152;SDS011;28756;49.064;9.290;2022-07-21T03:37:41;10.68;;;9.20;;
43152;SDS011;28756;49.064;9.290;2022-07-21T03:40:17;8.57;;;7.10;;
43152;SDS011;28756;49.064;9.290;2022-07-21T03:42:48;10.48;;;9.15;;
43152;SDS011;28756;49.064;9.290;2022-07-21T03:45:15;8.10;;;7.20;;
43152;SDS011;28756;49.064;9.290;2022-07-21T03:47:41;7.75;;;6.95;;
43152;SDS011;28756;49.064;9.290;2022-07-21T03:50:07;8.32;;;6.72;;
43152;SDS011;28756;49.064;9.290;2022-07-21T03:52:34;7.72;;;7.03;;
43152;SDS011;28756;49.064;9.290;2022-07-21T03:54:59;8.75;;;7.85;;
43152;SDS011;28756;49.064;9.290;2022-07-21T03:57:35;11.13;;;9.27;;
43152;SDS011;28756;49.064;9.290;2022-07-21T04:00:07;10.57;;;9.02;;
43152;SDS011;28756;49.064;9.290;2022-07-21T04:02:37;10.20;;;9.02;;
43152;SDS011;28756;49.064;9.290;2022-07-21T04:05:03;9.80;;;8.80;;
43152;SDS011;28756;49.064;9.290;2022-07-21T04:07:29;10.13;;;9.07;;
43152;SDS011;28756;49.064;9.290;2022-07-21T04:09:55;10.10;;;8.90;;
43152;SDS011;28756;49.064;9.290;2022-07-21T04:12:27;9.98;;;8.93;;
43152;SDS011;28756;49.064;9.290;2022-07-21T04:14:53;12.38;;;10.20;;
43152;SDS011;28756;49.064;9.290;2022-07-21T04:17:20;10.18;;;9.07;;
43152;SDS011;28756;49.064;9.290;2022-07-21T04:19:46;10.55;;;8.52;;
43152;SDS011;28756;49.064;9.290;2022-07-21T04:22:13;9.93;;;8.93;;
43152;SDS011;28756;49.064;9.290;2022-07-21T04:24:38;9.70;;;8.55;;
43152;SDS011;28756;49.064;9.290;2022-07-21T04:27:04;10.80;;;8.70;;
43152;SDS011;28756;49.064;9.290;2022-07-21T04:29:30;10.75;;;9.43;;
43152;SDS011;28756;49.064;9.290;2022-07-21T04:31:56;9.00;;;8.10;;
43152;SDS011;28756;49.064;9.290;2022-07-21T04:34:21;9.55;;;8.55;;
43152;SDS011;28756;49.064;9.290;2022-07-21T04:36:47;8.68;;;7.85;;
43152;SDS011;28756;49.064;9.290;2022-07-21T04:39:13;9.57;;;8.57;;
43152;SDS011;28756;49.064;9.290;2022-07-21T04:41:38;9.23;;;8.32;;
43152;SDS011;28756;49.064;9.290;2022-07-21T04:44:04;9.20;;;7.90;;
43152;SDS011;28756;49.064;9.290;2022-07-21T04:46:30;8.65;;;7.40;;
43152;SDS011;28756;49.064;9.290;2022-07-21T04:48:55;8.82;;;7.93;;
43152;SDS011;28756;49.064;9.290;2022-07-21T04:51:21;11.32;;;9.25;;
43152;SDS011;28756;49.064;9.290;2022-07-21T04:53:47;8.85;;;7.95;;
43152;SDS011;28756;49.064;9.290;2022-07-21T04:56:13;8.45;;;7.65;;
43152;SDS011;28756;49.064;9.290;2022-07-21T04:58:38;7.95;;;6.90;;
43152;SDS011;28756;49.064;9.290;2022-07-21T05:01:04;8.55;;;7.65;;
43152;SDS011;28756;49.064;9.290;2022-07-21T05:03:30;10.93;;;8.48;;
43152;SDS011;28756;49.064;9.290;2022-07-21T05:05:56;11.20;;;8.60;;
43152;SDS011;28756;49.064;9.290;2022-07-21T05:08:21;9.70;;;8.70;;
43152;SDS011;28756;49.064;9.290;2022-07-21T05:10:47;9.23;;;8.32;;
43152;SDS011;28756;49.064;9.290;2022-07-21T05:13:13;8.80;;;7.90;;
43152;SDS011;28756;49.064;9.290;2022-07-21T05:15:38;10.75;;;9.65;;
43152;SDS011;28756;49.064;9.290;2022-07-21T05:18:07;9.60;;;8.65;;
43152;SDS011;28756;49.064;9.290;2022-07-21T05:20:33;9.88;;;8.88;;
43152;SDS011;28756;49.064;9.290;2022-07-21T05:22:58;10.38;;;9.38;;
43152;SDS011;28756;49.064;9.290;2022-07-21T05:25:24;10.68;;;8.35;;
43152;SDS011;28756;49.064;9.290;2022-07-21T05:27:50;10.18;;;8.70;;
43152;SDS011;28756;49.064;9.290;2022-07-21T05:30:15;9.23;;;7.43;;
43152;SDS011;28756;49.064;9.290;2022-07-21T05:32:41;9.75;;;8.50;;
43152;SDS011;28756;49.064;9.290;2022-07-21T05:35:07;8.90;;;8.02;;
43152;SDS011;28756;49.064;9.290;2022-07-21T05:37:36;11.18;;;7.95;;
43152;SDS011;28756;49.064;9.290;2022-07-21T05:40:07;9.55;;;8.13;;
43152;SDS011;28756;49.064;9.290;2022-07-21T05:42:34;8.57;;;7.18;;
43152;SDS011;28756;49.064;9.290;2022-07-21T05:45:00;7.82;;;7.05;;
43152;SDS011;28756;49.064;9.290;2022-07-21T05:47:26;7.75;;;7.05;;
43152;SDS011;28756;49.064;9.290;2022-07-21T05:49:54;8.35;;;7.50;;
43152;SDS011;28756;49.064;9.290;2022-07-21T05:52:20;7.95;;;7.15;;
43152;SDS011;28756;49.064;9.290;2022-07-21T05:54:46;8.23;;;7.43;;
43152;SDS011;28756;49.064;9.290;2022-07-21T05:57:11;9.25;;;8.35;;
43152;SDS011;28756;49.064;9.290;2022-07-21T05:59:37;8.85;;;7.97;;
43152;SDS011;28756;49.064;9.290;2022-07-21T06:02:03;10.00;;;9.07;;
43152;SDS011;28756;49.064;9.290;2022-07-21T06:04:28;10.68;;;9.57;;
43152;SDS011;28756;49.064;9.290;2022-07-21T06:06:54;12.15;;;10.63;;
43152;SDS011;28756;49.064;9.290;2022-07-21T06:09:20;12.82;;;10.13;;
43152;SDS011;28756;49.064;9.290;2022-07-21T06:11:46;10.77;;;9.70;;
43152;SDS011;28756;49.064;9.290;2022-07-21T06:14:12;11.23;;;10.02;;
43152;SDS011;28756;49.064;9.290;2022-07-21T06:16:38;11.18;;;9.95;;
43152;SDS011;28756;49.064;9.290;2022-07-21T06:19:04;11.27;;;9.88;;
43152;SDS011;28756;49.064;9.290;2022-07-21T06:21:34;11.57;;;10.38;;
43152;SDS011;28756;49.064;9.290;2022-07-21T06:24:00;12.18;;;10.27;;
43152;SDS011;28756;49.064;9.290;2022-07-21T06:26:27;10.30;;;9.32;;
43152;SDS011;28756;49.064;9.290;2022-07-21T06:28:53;11.15;;;10.05;;
43152;SDS011;28756;49.064;9.290;2022-07-21T06:31:19;12.10;;;10.65;;
43152;SDS011;28756;49.064;9.290;2022-07-21T06:33:45;12.10;;;10.88;;
43152;SDS011;28756;49.064;9.290;2022-07-21T06:36:11;10.77;;;9.68;;
43152;SDS011;28756;49.064;9.290;2022-07-21T06:38:37;10.25;;;9.27;;
43152;SDS011;28756;49.064;9.290;2022-07-21T06:41:02;9.88;;;8.88;;
43152;SDS011;28756;49.064;9.290;2022-07-21T06:43:28;10.55;;;9.55;;
43152;SDS011;28756;49.064;9.290;2022-07-21T06:45:54;9.15;;;8.25;;
43152;SDS011;28756;49.064;9.290;2022-07-21T06:48:21;9.38;;;8.45;;
43152;SDS011;28756;49.064;9.290;2022-07-21T06:50:47;9.82;;;8.40;;
43152;SDS011;28756;49.064;9.290;2022-07-21T06:53:13;8.90;;;8.00;;
43152;SDS011;28756;49.064;9.290;2022-07-21T06:55:40;8.20;;;7.45;;
43152;SDS011;28756;49.064;9.290;2022-07-21T06:58:13;9.38;;;7.72;;
43152;SDS011;28756;49.064;9.290;2022-07-21T07:00:42;8.55;;;7.65;;
43152;SDS011;28756;49.064;9.290;2022-07-21T07:03:09;8.50;;;7.68;;
43152;SDS011;28756;49.064;9.290;2022-07-21T07:05:36;9.10;;;8.23;;
43152;SDS011;28756;49.064;9.290;2022-07-21T07:08:02;8.40;;;7.60;;
43152;SDS011;28756;49.064;9.290;2022-07-21T07:10:29;8.85;;;7.28;;
43152;SDS011;28756;49.064;9.290;2022-07-21T07:12:55;8.27;;;6.63;;
43152;SDS011;28756;49.064;9.290;2022-07-21T07:15:22;6.85;;;6.20;;
43152;SDS011;28756;49.064;9.290;2022-07-21T07:17:49;6.57;;;5.78;;
43152;SDS011;28756;49.064;9.290;2022-07-21T07:20:16;7.95;;;5.95;;
43152;SDS011;28756;49.064;9.290;2022-07-21T07:22:42;6.63;;;5.50;;
43152;SDS011;28756;49.064;9.290;2022-07-21T07:25:09;6.38;;;5.78;;
43152;SDS011;28756;49.064;9.290;2022-07-21T07:27:35;6.20;;;5.40;;
43152;SDS011;28756;49.064;9.290;2022-07-21T07:30:01;9.05;;;5.60;;
43152;SDS011;28756;49.064;9.290;2022-07-21T07:32:28;6.68;;;5.82;;
43152;SDS011;28756;49.064;9.290;2022-07-21T07:34:54;5.70;;;5.13;;
43152;SDS011;28756;49.064;9.290;2022-07-21T07:37:20;8.80;;;5.82;;
43152;SDS011;28756;49.064;9.290;2022-07-21T07:39:46;7.47;;;5.65;;
43152;SDS011;28756;49.064;9.290;2022-07-21T07:42:11;6.10;;;5.50;;
43152;SDS011;28756;49.064;9.290;2022-07-21T07:44:37;6.50;;;5.32;;
43152;SDS011;28756;49.064;9.290;2022-07-21T07:47:03;5.30;;;4.80;;
43152;SDS011;28756;49.064;9.290;2022-07-21T07:49:29;5.70;;;4.70;;
43152;SDS011;28756;49.064;9.290;2022-07-21T07:51:56;5.40;;;4.47;;
43152;SDS011;28756;49.064;9.290;2022-07-21T07:54:23;5.63;;;4.47;;
43152;SDS011;28756;49.064;9.290;2022-07-21T07:56:49;5.40;;;4.80;;
43152;SDS011;28756;49.064;9.290;2022-07-21T07:59:16;5.22;;;4.72;;
43152;SDS011;28756;49.064;9.290;2022-07-21T08:01:41;6.32;;;4.75;;
43152;SDS011;28756;49.064;9.290;2022-07-21T08:04:07;5.18;;;4.40;;
43152;SDS011;28756;49.064;9.290;2022-07-21T08:06:33;5.45;;;4.40;;
43152;SDS011;28756;49.064;9.290;2022-07-21T08:08:59;6.25;;;4.63;;
43152;SDS011;28756;49.064;9.290;2022-07-21T08:11:25;7.05;;;5.10;;
43152;SDS011;28756;49.064;9.290;2022-07-21T08:13:51;5.13;;;4.63;;
43152;SDS011;28756;49.064;9.290;2022-07-21T08:16:17;4.90;;;4.47;;
43152;SDS011;28756;49.064;9.290;2022-07-21T08:18:43;5.53;;;4.65;;
43152;SDS011;28756;49.064;9.290;2022-07-21T08:21:09;5.38;;;4.68;;
43152;SDS011;28756;49.064;9.290;2022-07-21T08:23:35;5.63;;;4.75;;
43152;SDS011;28756;49.064;9.290;2022-07-21T08:26:02;4.95;;;4.50;;
43152;SDS011;28756;49.064;9.290;2022-07-21T08:28:28;6.13;;;4.20;;
43152;SDS011;28756;49.064;9.290;2022-07-21T08:30:53;4.55;;;4.15;;
43152;SDS011;28756;49.064;9.290;2022-07-21T08:33:19;5.22;;;4.68;;
43152;SDS011;28756;49.064;9.290;2022-07-21T08:35:45;5.25;;;4.75;;
43152;SDS011;28756;49.064;9.290;2022-07-21T08:38:11;5.18;;;4.68;;
43152;SDS011;28756;49.064;9.290;2022-07-21T08:40:38;7.20;;;4.43;;
43152;SDS011;28756;49.064;9.290;2022-07-21T08:43:10;6.18;;;4.00;;
43152;SDS011;28756;49.064;9.290;2022-07-21T08:45:38;4.65;;;4.20;;
43152;SDS011;28756;49.064;9.290;2022-07-21T08:48:04;7.78;;;4.63;;
43152;SDS011;28756;49.064;9.290;2022-07-21T08:50:32;6.45;;;4.55;;
43152;SDS011;28756;49.064;9.290;2022-07-21T08:53:02;6.13;;;5.10;;
43152;SDS011;28756;49.064;9.290;2022-07-21T08:55:29;7.40;;;4.90;;
43152;SDS011;28756;49.064;9.290;2022-07-21T08:57:56;7.40;;;5.03;;
43152;SDS011;28756;49.064;9.290;2022-07-21T09:00:23;5.75;;;4.43;;
43152;SDS011;28756;49.064;9.290;2022-07-21T09:02:48;6.03;;;4.82;;
43152;SDS011;28756;49.064;9.290;2022-07-21T09:05:14;5.75;;;5.10;;
43152;SDS011;28756;49.064;9.290;2022-07-21T09:07:47;6.05;;;5.10;;
43152;SDS011;28756;49.064;9.290;2022-07-21T09:10:18;4.93;;;4.53;;
43152;SDS011;28756;49.064;9.290;2022-07-21T09:12:58;5.18;;;4.68;;
43152;SDS011;28756;49.064;9.290;2022-07-21T09:15:28;5.75;;;4.50;;
43152;SDS011;28756;49.064;9.290;2022-07-21T09:18:04;4.78;;;4.38;;
43152;SDS011;28756;49.064;9.290;2022-07-21T09:20:48;4.82;;;4.28;;
43152;SDS011;28756;49.064;9.290;2022-07-21T09:23:17;4.45;;;4.03;;
43152;SDS011;28756;49.064;9.290;2022-07-21T09:25:47;4.43;;;4.03;;
43152;SDS011;28756;49.064;9.290;2022-07-21T09:28:27;3.97;;;3.63;;
43152;SDS011;28756;49.064;9.290;2022-07-21T09:36:07;5.85;;;4.47;;
43152;SDS011;28756;49.064;9.290;2022-07-21T09:38:43;4.05;;;3.50;;
43152;SDS011;28756;49.064;9.290;2022-07-21T09:41:21;5.97;;;4.30;;
43152;SDS011;28756;49.064;9.290;2022-07-21T09:43:53;3.40;;;3.10;;
43152;SDS011;28756;49.064;9.290;2022-07-21T09:46:28;5.03;;;3.67;;
43152;SDS011;28756;49.064;9.290;2022-07-21T09:48:58;4.95;;;3.60;;
43152;SDS011;28756;49.064;9.290;2022-07-21T09:51:28;4.28;;;3.63;;
43152;SDS011;28756;49.064;9.290;2022-07-21T09:56:40;4.30;;;3.90;;
43152;SDS011;28756;49.064;9.290;2022-07-21T09:59:09;4.18;;;3.78;;
43152;SDS011;28756;49.064;9.290;2022-07-21T10:01:37;4.50;;;3.55;;
43152;SDS011;28756;49.064;9.290;2022-07-21T10:04:04;4.97;;;3.67;;
43152;SDS011;28756;49.064;9.290;2022-07-21T10:06:31;5.28;;;3.53;;
43152;SDS011;28756;49.064;9.290;2022-07-21T10:09:03;5.53;;;3.05;;
43152;SDS011;28756;49.064;9.290;2022-07-21T10:11:31;3.08;;;2.80;;
43152;SDS011;28756;49.064;9.290;2022-07-21T10:13:57;4.25;;;2.80;;
43152;SDS011;28756;49.064;9.290;2022-07-21T10:16:23;3.40;;;2.78;;
43152;SDS011;28756;49.064;9.290;2022-07-21T10:24:14;3.33;;;2.72;;
43152;SDS011;28756;49.064;9.290;2022-07-21T10:26:58;3.85;;;2.80;;
43152;SDS011;28756;49.064;9.290;2022-07-21T10:32:23;3.15;;;2.80;;
43152;SDS011;28756;49.064;9.290;2022-07-21T10:34:59;2.78;;;2.53;;
43152;SDS011;28756;49.064;9.290;2022-07-21T10:37:47;4.18;;;2.85;;
43152;SDS011;28756;49.064;9.290;2022-07-21T10:48:02;3.67;;;3.00;;
43152;SDS011;28756;49.064;9.290;2022-07-21T10:50:37;3.67;;;2.70;;
43152;SDS011;28756;49.064;9.290;2022-07-21T10:53:11;3.13;;;2.80;;
43152;SDS011;28756;49.064;9.290;2022-07-21T10:55:46;2.83;;;2.63;;
43152;SDS011;28756;49.064;9.290;2022-07-21T11:01:00;5.18;;;3.05;;
43152;SDS011;28756;49.064;9.290;2022-07-21T11:11:07;4.40;;;3.63;;
43152;SDS011;28756;49.064;9.290;2022-07-21T11:14:10;4.07;;;3.42;;
43152;SDS011;28756;49.064;9.290;2022-07-21T11:19:38;4.18;;;3.60;;
43152;SDS011;28756;49.064;9.290;2022-07-21T11:25:15;3.35;;;3.05;;
43152;SDS011;28756;49.064;9.290;2022-07-21T11:27:35;5.43;;;3.50;;
43152;SDS011;28756;49.064;9.290;2022-07-21T11:30:06;3.38;;;3.08;;
43152;SDS011;28756;49.064;9.290;2022-07-21T11:32:34;4.43;;;3.22;;
43152;SDS011;28756;49.064;9.290;2022-07-21T11:35:01;4.53;;;3.05;;
43152;SDS011;28756;49.064;9.290;2022-07-21T11:40:03;4.53;;;3.17;;
43152;SDS011;28756;49.064;9.290;2022-07-21T11:42:33;3.28;;;2.92;;
43152;SDS011;28756;49.064;9.290;2022-07-21T11:45:00;4.35;;;3.28;;
43152;SDS011;28756;49.064;9.290;2022-07-21T11:47:26;3.58;;;3.28;;
43152;SDS011;28756;49.064;9.290;2022-07-21T11:49:53;4.40;;;3.10;;
43152;SDS011;28756;49.064;9.290;2022-07-21T11:52:25;4.38;;;3.50;;
43152;SDS011;28756;49.064;9.290;2022-07-21T11:54:55;4.80;;;3.60;;
43152;SDS011;28756;49.064;9.290;2022-07-21T11:57:23;4.18;;;3.47;;
43152;SDS011;28756;49.064;9.290;2022-07-21T11:59:50;6.18;;;3.60;;
43152;SDS011;28756;49.064;9.290;2022-07-21T12:04:48;5.30;;;3.53;;
43152;SDS011;28756;49.064;9.290;2022-07-21T12:07:31;4.18;;;3.75;;
43152;SDS011;28756;49.064;9.290;2022-07-21T12:10:06;4.80;;;3.75;;
43152;SDS011;28756;49.064;9.290;2022-07-21T12:12:39;4.85;;;3.55;;
43152;SDS011;28756;49.064;9.290;2022-07-21T12:18:04;4.28;;;3.75;;
43152;SDS011;28756;49.064;9.290;2022-07-21T12:20:43;4.45;;;3.88;;
43152;SDS011;28756;49.064;9.290;2022-07-21T12:23:25;4.13;;;3.72;;
43152;SDS011;28756;49.064;9.290;2022-07-21T12:25:54;4.32;;;3.92;;
43152;SDS011;28756;49.064;9.290;2022-07-21T12:28:40;5.20;;;3.83;;
43152;SDS011;28756;49.064;9.290;2022-07-21T12:31:19;4.70;;;4.18;;
43152;SDS011;28756;49.064;9.290;2022-07-21T12:33:46;4.07;;;3.67;;
43152;SDS011;28756;49.064;9.290;2022-07-21T12:36:13;3.38;;;3.08;;
43152;SDS011;28756;49.064;9.290;2022-07-21T12:38:40;4.28;;;3.28;;
43152;SDS011;28756;49.064;9.290;2022-07-21T12:41:11;4.00;;;3.40;;
43152;SDS011;28756;49.064;9.290;2022-07-21T12:43:40;3.33;;;2.97;;
43152;SDS011;28756;49.064;9.290;2022-07-21T12:48:42;3.70;;;3.20;;
43152;SDS011;28756;49.064;9.290;2022-07-21T12:51:12;3.53;;;3.22;;
43152;SDS011;28756;49.064;9.290;2022-07-21T12:53:54;3.50;;;3.20;;
43152;SDS011;28756;49.064;9.290;2022-07-21T12:56:21;4.35;;;3.42;;
43152;SDS011;28756;49.064;9.290;2022-07-21T12:58:54;3.72;;;3.33;;
43152;SDS011;28756;49.064;9.290;2022-07-21T13:01:22;3.65;;;3.30;;
43152;SDS011;28756;49.064;9.290;2022-07-21T13:03:49;3.63;;;3.13;;
43152;SDS011;28756;49.064;9.290;2022-07-21T13:06:15;3.72;;;3.20;;
43152;SDS011;28756;49.064;9.290;2022-07-21T13:08:45;3.33;;;3.03;;
43152;SDS011;28756;49.064;9.290;2022-07-21T13:11:13;3.45;;;2.90;;
43152;SDS011;28756;49.064;9.290;2022-07-21T13:13:43;3.30;;;3.00;;
43152;SDS011;28756;49.064;9.290;2022-07-21T13:16:10;4.10;;;3.15;;
43152;SDS011;28756;49.064;9.290;2022-07-21T13:18:36;3.28;;;2.97;;
43152;SDS011;28756;49.064;9.290;2022-07-21T13:21:03;4.20;;;3.30;;
43152;SDS011;28756;49.064;9.290;2022-07-21T13:23:29;7.43;;;3.30;;
43152;SDS011;28756;49.064;9.290;2022-07-21T13:25:56;3.47;;;3.17;;
43152;SDS011;28756;49.064;9.290;2022-07-21T13:28:21;3.88;;;3.10;;
43152;SDS011;28756;49.064;9.290;2022-07-21T13:30:47;3.65;;;3.35;;
43152;SDS011;28756;49.064;9.290;2022-07-21T13:33:14;4.30;;;3.33;;
43152;SDS011;28756;49.064;9.290;2022-07-21T13:35:40;4.18;;;2.90;;
43152;SDS011;28756;49.064;9.290;2022-07-21T13:38:06;3.47;;;3.17;;
43152;SDS011;28756;49.064;9.290;2022-07-21T13:40:32;3.78;;;3.35;;
43152;SDS011;28756;49.064;9.290;2022-07-21T13:42:58;4.32;;;3.28;;
43152;SDS011;28756;49.064;9.290;2022-07-21T13:45:24;4.25;;;3.00;;
43152;SDS011;28756;49.064;9.290;2022-07-21T13:47:50;6.93;;;3.47;;
43152;SDS011;28756;49.064;9.290;2022-07-21T13:50:16;3.25;;;2.95;;
43152;SDS011;28756;49.064;9.290;2022-07-21T13:52:41;3.42;;;3.13;;
43152;SDS011;28756;49.064;9.290;2022-07-21T13:55:08;3.50;;;2.75;;
43152;SDS011;28756;49.064;9.290;2022-07-21T13:57:34;3.17;;;2.83;;
43152;SDS011;28756;49.064;9.290;2022-07-21T14:00:05;5.28;;;3.13;;
43152;SDS011;28756;49.064;9.290;2022-07-21T14:02:34;3.33;;;3.10;;
43152;SDS011;28756;49.064;9.290;2022-07-21T14:05:01;3.08;;;2.85;;
43152;SDS011;28756;49.064;9.290;2022-07-21T14:07:28;5.38;;;2.70;;
43152;SDS011;28756;49.064;9.290;2022-07-21T14:09:55;3.53;;;2.50;;
43152;SDS011;28756;49.064;9.290;2022-07-21T14:12:20;3.90;;;3.05;;
43152;SDS011;28756;49.064;9.290;2022-07-21T14:14:46;2.90;;;2.60;;
43152;SDS011;28756;49.064;9.290;2022-07-21T14:17:12;3.83;;;3.10;;
43152;SDS011;28756;49.064;9.290;2022-07-21T14:19:39;3.53;;;3.22;;
43152;SDS011;28756;49.064;9.290;2022-07-21T14:22:05;3.20;;;2.90;;
43152;SDS011;28756;49.064;9.290;2022-07-21T14:24:31;3.35;;;3.05;;
43152;SDS011;28756;49.064;9.290;2022-07-21T14:27:15;4.85;;;3.15;;
43152;SDS011;28756;49.064;9.290;2022-07-21T14:29:41;3.28;;;2.95;;
43152;SDS011;28756;49.064;9.290;2022-07-21T14:32:07;5.35;;;2.97;;
43152;SDS011;28756;49.064;9.290;2022-07-21T14:34:33;4.20;;;2.90;;
43152;SDS011;28756;49.064;9.290;2022-07-21T14:36:58;3.78;;;2.90;;
43152;SDS011;28756;49.064;9.290;2022-07-21T14:39:24;4.03;;;2.90;;
43152;SDS011;28756;49.064;9.290;2022-07-21T14:41:50;4.10;;;3.13;;
43152;SDS011;28756;49.064;9.290;2022-07-21T14:44:16;3.80;;;2.75;;
43152;SDS011;28756;49.064;9.290;2022-07-21T14:46:41;4.10;;;3.10;;
43152;SDS011;28756;49.064;9.290;2022-07-21T14:49:07;3.50;;;2.65;;
43152;SDS011;28756;49.064;9.290;2022-07-21T14:51:33;3.08;;;2.70;;
43152;SDS011;28756;49.064;9.290;2022-07-21T14:53:59;3.88;;;3.30;;
43152;SDS011;28756;49.064;9.290;2022-07-21T14:56:25;4.18;;;2.92;;
43152;SDS011;28756;49.064;9.290;2022-07-21T14:58:51;2.97;;;2.45;;
43152;SDS011;28756;49.064;9.290;2022-07-21T15:01:17;3.75;;;2.92;;
43152;SDS011;28756;49.064;9.290;2022-07-21T15:03:43;2.92;;;2.60;;
43152;SDS011;28756;49.064;9.290;2022-07-21T15:06:08;4.25;;;3.00;;
43152;SDS011;28756;49.064;9.290;2022-07-21T15:08:34;2.92;;;2.60;;
43152;SDS011;28756;49.064;9.290;2022-07-21T15:11:00;2.80;;;2.42;;
43152;SDS011;28756;49.064;9.290;2022-07-21T15:13:26;3.63;;;2.70;;
43152;SDS011;28756;49.064;9.290;2022-07-21T15:15:54;4.30;;;2.80;;
43152;SDS011;28756;49.064;9.290;2022-07-21T15:18:20;3.58;;;2.72;;
43152;SDS011;28756;49.064;9.290;2022-07-21T15:20:46;3.50;;;2.60;;
43152;SDS011;28756;49.064;9.290;2022-07-21T15:23:12;3.03;;;2.72;;
43152;SDS011;28756;49.064;9.290;2022-07-21T15:25:38;3.25;;;2.78;;
43152;SDS011;28756;49.064;9.290;2022-07-21T15:28:04;3.88;;;2.67;;
43152;SDS011;28756;49.064;9.290;2022-07-21T15:30:31;3.90;;;2.95;;
43152;SDS011;28756;49.064;9.290;2022-07-21T15:32:58;3.08;;;2.70;;
43152;SDS011;28756;49.064;9.290;2022-07-21T15:35:24;4.22;;;2.70;;
43152;SDS011;28756;49.064;9.290;2022-07-21T15:37:50;3.20;;;2.90;;
43152;SDS011;28756;49.064;9.290;2022-07-21T15:40:16;3.47;;;2.70;;
43152;SDS011;28756;49.064;9.290;2022-07-21T15:42:42;4.45;;;3.00;;